Time;durP1;ratioP1;P1;durP2;ratioP2;P2;SDS_P1;SDS_P2;PMS_P1;PMS_P2;Temp;Humidity;BMP_temperature;BMP_pressure;BME280_temperature;BME280_humidity;BME280_pressure;Samples;Min_cycle;Max_cycle;Signal;HPM_P1;HPM_P2
2022/04/03 00:04:09;;;;;;;8.73;4.62;;;;;;;-0.52;66.09;99854.52;3506040;80;20942;-76
2022/04/03 00:09:03;;;;;;;11.53;6.10;;;;;;;-0.55;66.06;99861.64;3505776;80;21471;-76
2022/04/03 00:13:56;;;;;;;7.25;4.70;;;;;;;-0.59;66.06;99861.00;3414640;80;20978;-76
2022/04/03 00:18:49;;;;;;;8.43;4.50;;;;;;;-0.61;66.07;99865.16;3474423;80;21067;-76
2022/04/03 00:23:41;;;;;;;7.00;4.62;;;;;;;-0.67;66.01;99858.50;3413948;81;20897;-76
2022/04/03 00:28:32;;;;;;;8.48;4.67;;;;;;;-0.72;65.91;99863.78;3388535;81;21006;-76
2022/04/03 00:33:24;;;;;;;10.45;5.03;;;;;;;-0.78;66.15;99867.78;3441922;81;20967;-76
2022/04/03 00:38:15;;;;;;;8.60;4.85;;;;;;;-0.84;65.95;99863.67;3481654;80;21064;-77
2022/04/03 00:43:06;;;;;;;9.10;4.55;;;;;;;-0.87;65.88;99855.85;3463895;80;21248;-76
2022/04/03 00:47:58;;;;;;;9.70;5.28;;;;;;;-0.90;65.81;99854.41;3527426;80;21493;-76
2022/04/03 00:52:50;;;;;;;7.15;4.90;;;;;;;-0.95;66.01;99858.41;3476362;80;20948;-77
2022/04/03 00:57:43;;;;;;;6.78;4.42;;;;;;;-1.00;65.81;99865.00;3498895;80;20955;-76
2022/04/03 01:02:34;;;;;;;10.63;4.83;;;;;;;-1.06;65.90;99860.44;3505393;80;20974;-76
2022/04/03 01:07:26;;;;;;;7.25;5.15;;;;;;;-1.10;65.86;99860.23;3504741;80;21113;-76
2022/04/03 01:12:17;;;;;;;10.63;5.45;;;;;;;-1.16;65.84;99861.67;3449497;80;21082;-76
2022/04/03 01:17:13;;;;;;;7.80;4.72;;;;;;;-1.16;65.90;99864.22;3456017;80;21512;-77
2022/04/03 01:22:04;;;;;;;7.17;5.15;;;;;;;-1.20;65.82;99866.53;3456012;81;20979;-76
2022/04/03 01:26:56;;;;;;;12.18;5.60;;;;;;;-1.21;66.12;99864.80;3413404;81;21025;-76
2022/04/03 01:31:48;;;;;;;10.32;5.05;;;;;;;-1.22;66.01;99866.85;3425229;81;21883;-76
2022/04/03 01:36:39;;;;;;;7.60;4.37;;;;;;;-1.25;65.96;99870.14;3454367;81;20986;-76
2022/04/03 01:41:30;;;;;;;9.98;4.40;;;;;;;-1.29;65.79;99878.41;3395783;81;20986;-76
2022/04/03 01:46:22;;;;;;;11.28;5.03;;;;;;;-1.31;65.91;99882.97;3456073;81;20908;-77
2022/04/03 01:51:13;;;;;;;8.80;4.72;;;;;;;-1.33;65.79;99885.44;3384866;81;21452;-77
2022/04/03 01:56:07;;;;;;;8.53;5.53;;;;;;;-1.35;65.83;99889.19;3419835;81;21089;-77
2022/04/03 02:00:59;;;;;;;7.05;4.75;;;;;;;-1.37;65.84;99889.92;3367759;81;21022;-77
2022/04/03 02:05:51;;;;;;;9.30;5.55;;;;;;;-1.39;65.82;99898.76;3476317;81;21503;-77
2022/04/03 02:10:42;;;;;;;7.12;4.30;;;;;;;-1.42;65.89;99902.41;3385189;81;20947;-77
2022/04/03 02:15:34;;;;;;;8.28;5.17;;;;;;;-1.44;65.79;99901.87;3397097;81;20990;-77
2022/04/03 02:20:26;;;;;;;7.28;4.33;;;;;;;-1.47;65.71;99905.12;3412027;81;21207;-77
2022/04/03 02:25:18;;;;;;;6.78;4.70;;;;;;;-1.47;65.63;99905.12;3427765;81;20962;-77
2022/04/03 02:30:10;;;;;;;10.63;5.15;;;;;;;-1.51;65.65;99906.17;3426642;81;20943;-77
2022/04/03 02:35:04;;;;;;;7.65;5.10;;;;;;;-1.52;65.68;99910.78;3382698;81;20967;-77
2022/04/03 02:39:57;;;;;;;6.47;4.47;;;;;;;-1.54;65.56;99919.25;3398387;81;20945;-77
2022/04/03 02:44:48;;;;;;;9.20;5.85;;;;;;;-1.57;65.54;99911.43;3424910;81;21177;-76
2022/04/03 02:49:39;;;;;;;8.33;5.70;;;;;;;-1.61;65.50;99918.82;3427898;81;20947;-76
2022/04/03 02:54:30;;;;;;;8.83;4.75;;;;;;;-1.66;65.50;99918.59;3404745;81;20911;-77
2022/04/03 02:59:21;;;;;;;8.78;4.70;;;;;;;-1.70;65.41;99926.86;3446700;81;21296;-77
2022/04/03 03:04:14;;;;;;;5.62;4.55;;;;;;;-1.73;65.33;99927.98;3458563;81;20943;-77
2022/04/03 03:09:06;;;;;;;9.20;5.05;;;;;;;-1.78;65.35;99935.78;3437983;81;21113;-77
2022/04/03 03:13:57;;;;;;;6.85;4.70;;;;;;;-1.80;65.15;99938.66;3406369;81;21373;-76
2022/04/03 03:18:48;;;;;;;9.38;4.80;;;;;;;-1.84;65.04;99931.61;3427094;81;20993;-77
2022/04/03 03:23:40;;;;;;;9.10;6.72;;;;;;;-1.87;64.95;99933.61;3442880;81;21901;-77
2022/04/03 03:28:33;;;;;;;9.35;4.95;;;;;;;-1.92;64.86;99935.90;3402305;81;20973;-77
2022/04/03 03:33:24;;;;;;;9.68;5.05;;;;;;;-1.99;64.87;99936.36;3431261;81;21875;-76
2022/04/03 03:38:16;;;;;;;9.60;4.87;;;;;;;-2.03;64.62;99945.91;3426475;81;21006;-76
2022/04/03 03:43:09;;;;;;;6.08;4.12;;;;;;;-2.06;64.66;99944.46;3372053;81;21049;-76
2022/04/03 03:48:00;;;;;;;7.55;4.55;;;;;;;-2.10;64.62;99951.46;3430616;81;21555;-76
2022/04/03 03:52:51;;;;;;;10.05;3.77;;;;;;;-2.16;64.46;99954.95;3404702;81;21716;-76
2022/04/03 03:57:47;;;;;;;10.70;4.75;;;;;;;-2.20;64.44;99958.10;3452748;81;22028;-76
2022/04/03 04:02:38;;;;;;;10.58;5.60;;;;;;;-2.21;64.36;99969.10;3427957;81;21478;-76
2022/04/03 04:07:42;;;;;;;7.92;4.62;;;;;;;-2.23;64.29;99973.23;3413713;81;20959;-76
2022/04/03 04:12:35;;;;;;;7.53;5.17;;;;;;;-2.25;64.15;99981.16;3429662;81;21025;-77
2022/04/03 04:17:26;;;;;;;5.80;4.60;;;;;;;-2.26;64.25;99984.11;3450113;81;21018;-77
2022/04/03 04:22:18;;;;;;;8.98;4.42;;;;;;;-2.25;64.19;99990.07;3477268;81;22061;-76
2022/04/03 04:27:09;;;;;;;13.50;8.08;;;;;;;-2.28;64.04;99989.92;3437372;81;20899;-76
2022/04/03 04:32:00;;;;;;;13.80;8.88;;;;;;;-2.27;63.94;99995.11;3411106;81;21134;-77
2022/04/03 04:36:51;;;;;;;9.63;6.17;;;;;;;-2.24;63.75;99996.94;3434515;80;21461;-77
2022/04/03 04:41:42;;;;;;;18.62;8.48;;;;;;;-2.20;63.69;100001.40;3509479;80;20966;-77
2022/04/03 04:46:33;;;;;;;16.52;7.05;;;;;;;-2.13;63.44;100011.14;3485172;80;21992;-77
2022/04/03 04:51:25;;;;;;;12.15;7.08;;;;;;;-2.06;63.33;100018.34;3474627;81;20935;-77
2022/04/03 04:56:16;;;;;;;10.48;6.55;;;;;;;-2.01;62.98;100019.47;3479525;81;20935;-77
2022/04/03 05:01:07;;;;;;;10.53;6.03;;;;;;;-1.88;62.89;100021.44;3482164;81;21457;-77
2022/04/03 05:05:58;;;;;;;7.60;4.28;;;;;;;-1.78;62.86;100030.08;3398360;81;20939;-77
2022/04/03 05:10:52;;;;;;;8.23;5.05;;;;;;;-1.66;62.59;100038.77;3463722;81;21092;-77
2022/04/03 05:15:44;;;;;;;8.28;5.08;;;;;;;-1.57;62.49;100038.03;3465917;81;20971;-77
2022/04/03 05:20:35;;;;;;;7.30;4.97;;;;;;;-1.47;62.30;100044.49;3450877;81;20951;-77
2022/04/03 05:25:27;;;;;;;6.83;4.67;;;;;;;-1.39;62.10;100045.80;3385872;81;20983;-76
2022/04/03 05:30:19;;;;;;;11.30;5.70;;;;;;;-1.29;61.76;100064.60;3408871;81;21038;-77
2022/04/03 05:35:13;;;;;;;6.10;4.55;;;;;;;-1.16;61.36;100060.66;3431960;81;21239;-77
2022/04/03 05:40:05;;;;;;;7.78;4.65;;;;;;;-1.05;61.02;100066.73;3440031;81;21501;-77
2022/04/03 05:44:56;;;;;;;6.78;4.75;;;;;;;-0.94;60.42;100073.68;3395536;81;21512;-77
2022/04/03 05:49:47;;;;;;;7.27;5.40;;;;;;;-0.78;60.47;100073.27;3420475;81;21741;-77
2022/04/03 05:54:39;;;;;;;9.23;4.92;;;;;;;-0.59;60.09;100074.20;3413545;81;21667;-77
2022/04/03 05:59:30;;;;;;;7.20;4.33;;;;;;;-0.41;59.64;100087.94;3407888;81;21118;-77
2022/04/03 06:04:22;;;;;;;7.08;4.67;;;;;;;-0.24;59.04;100094.29;3364844;81;20905;-77
2022/04/03 06:09:13;;;;;;;8.50;5.62;;;;;;;0.05;58.62;100093.17;3381591;81;21450;-77
2022/04/03 06:14:04;;;;;;;8.23;5.62;;;;;;;0.16;58.51;100097.52;3361313;83;21768;-77
2022/04/03 06:18:55;;;;;;;6.47;4.90;;;;;;;0.31;58.19;100098.69;3346022;83;21151;-77
2022/04/03 06:23:46;;;;;;;5.93;4.63;;;;;;;0.46;57.91;100098.13;3320125;84;20977;-77
2022/04/03 06:28:38;;;;;;;6.85;5.25;;;;;;;0.63;57.40;100106.61;3330281;83;21180;-78
2022/04/03 06:33:28;;;;;;;8.85;6.05;;;;;;;0.69;56.67;100105.61;3341305;83;21256;-78
2022/04/03 06:38:20;;;;;;;8.13;6.33;;;;;;;0.95;57.29;100109.38;3366639;83;20903;-78
2022/04/03 06:43:11;;;;;;;9.33;6.10;;;;;;;1.30;57.03;100119.45;3399355;83;21294;-78
2022/04/03 06:48:03;;;;;;;7.47;5.35;;;;;;;1.42;56.09;100121.70;3346066;83;21249;-77
2022/04/03 06:52:54;;;;;;;10.23;6.78;;;;;;;1.47;55.76;100118.52;3356350;82;20954;-77
2022/04/03 06:57:45;;;;;;;8.33;6.47;;;;;;;1.74;56.06;100126.07;3401994;83;20868;-77
2022/04/03 07:02:36;;;;;;;8.28;5.67;;;;;;;1.93;55.47;100131.55;3396006;83;21177;-77
2022/04/03 07:07:27;;;;;;;7.95;6.00;;;;;;;2.02;55.14;100131.94;3321608;81;20959;-77
2022/04/03 07:12:20;;;;;;;9.55;6.58;;;;;;;2.31;54.92;100141.24;3465693;81;20959;-77
2022/04/03 07:17:11;;;;;;;7.33;5.60;;;;;;;2.33;54.12;100139.23;3478653;81;20908;-77
2022/04/03 07:22:03;;;;;;;9.40;6.53;;;;;;;2.31;54.21;100140.86;3454214;81;20959;-77
2022/04/03 07:26:54;;;;;;;7.08;6.37;;;;;;;3.62;52.93;100149.70;3424635;80;21563;-78
2022/04/03 07:31:46;;;;;;;7.35;6.50;;;;;;;7.91;48.87;100132.52;3462593;80;20955;-79
2022/04/03 07:36:37;;;;;;;8.10;6.40;;;;;;;10.74;46.35;100130.10;3449089;81;21446;-79
2022/04/03 07:41:28;;;;;;;6.90;6.30;;;;;;;12.74;44.53;100132.01;3461357;80;21397;-77
2022/04/03 07:46:19;;;;;;;7.17;6.47;;;;;;;15.67;41.46;100133.88;3478215;80;21689;-77
2022/04/03 07:51:11;;;;;;;6.55;5.83;;;;;;;18.01;39.15;100129.76;3498169;81;21596;-77
2022/04/03 07:56:04;;;;;;;6.25;5.67;;;;;;;19.08;37.64;100135.90;3441882;80;21072;-77
2022/04/03 08:00:55;;;;;;;5.90;5.28;;;;;;;17.96;37.10;100142.17;3469397;81;21316;-78
2022/04/03 08:05:47;;;;;;;5.33;4.83;;;;;;;18.78;34.62;100146.30;3472062;80;20911;-77
2022/04/03 08:10:38;;;;;;;4.87;4.40;;;;;;;18.02;34.20;100141.56;3461982;81;21455;-78
2022/04/03 08:15:30;;;;;;;5.97;5.45;;;;;;;16.30;35.20;100151.38;3447302;81;20928;-78
2022/04/03 08:20:21;;;;;;;6.12;5.00;;;;;;;16.87;33.79;100148.70;3502446;80;20942;-79
2022/04/03 08:25:13;;;;;;;4.93;4.50;;;;;;;19.86;31.96;100142.05;3428666;80;20903;-78
2022/04/03 08:30:07;;;;;;;5.22;4.72;;;;;;;18.79;31.57;100151.53;3490061;80;20998;-78
2022/04/03 08:34:58;;;;;;;5.03;4.58;;;;;;;18.18;32.05;100148.66;3448132;81;20939;-78
2022/04/03 08:39:49;;;;;;;5.30;4.83;;;;;;;18.38;31.58;100153.89;3465727;80;20997;-78
2022/04/03 08:44:40;;;;;;;4.17;3.75;;;;;;;18.57;31.65;100159.59;3495478;81;20986;-78
2022/04/03 08:49:32;;;;;;;4.78;4.28;;;;;;;18.57;30.39;100159.13;3436295;81;21016;-79
2022/04/03 08:54:24;;;;;;;4.22;3.62;;;;;;;17.97;30.06;100160.98;3464634;80;20967;-78
2022/04/03 08:59:15;;;;;;;6.65;4.55;;;;;;;18.60;29.72;100166.95;3466903;80;20982;-78
2022/04/03 09:04:06;;;;;;;4.45;3.77;;;;;;;16.44;30.54;100165.59;3428105;80;20959;-80
2022/04/03 09:08:57;;;;;;;4.28;3.87;;;;;;;16.56;30.40;100162.32;3501891;80;21041;-80
2022/04/03 09:13:49;;;;;;;4.20;3.80;;;;;;;16.52;29.58;100162.39;3525069;80;21628;-79
2022/04/03 09:18:52;;;;;;;4.42;4.05;;;;;;;16.58;29.84;100167.55;3506813;80;20980;-79
2022/04/03 09:24:10;;;;;;;5.15;4.05;;;;;;;15.53;30.02;100165.06;3469366;80;21021;-80
2022/04/03 09:29:16;;;;;;;3.72;3.33;;;;;;;14.77;30.13;100171.55;3477757;80;20935;-81
2022/04/03 09:34:19;;;;;;;4.35;3.60;;;;;;;15.06;30.52;100181.73;3478838;80;20947;-81
2022/04/03 09:39:16;;;;;;;3.98;3.67;;;;;;;13.37;30.35;100189.77;3508847;81;21223;-81
2022/04/03 09:44:16;;;;;;;3.37;3.12;;;;;;;15.72;29.86;100177.92;3458869;80;20979;-81
2022/04/03 09:49:26;;;;;;;4.15;3.22;;;;;;;15.78;28.67;100182.69;3517198;80;20946;-81
2022/04/03 09:54:19;;;;;;;4.25;3.58;;;;;;;16.32;28.30;100175.83;3465042;81;20935;-81
2022/04/03 09:59:10;;;;;;;3.98;3.17;;;;;;;13.95;29.85;100185.61;3493962;80;20978;-81
2022/04/03 10:04:13;;;;;;;3.50;3.20;;;;;;;12.88;30.72;100201.13;3510876;81;20989;-81
2022/04/03 10:09:11;;;;;;;3.80;3.27;;;;;;;15.36;28.82;100191.89;3491590;80;22128;-81
2022/04/03 10:14:02;;;;;;;5.30;4.50;;;;;;;15.76;28.52;100190.16;3475549;81;20974;-81
2022/04/03 10:18:53;;;;;;;3.98;3.67;;;;;;;14.31;29.57;100203.27;3466843;80;20927;-81
2022/04/03 10:23:45;;;;;;;4.08;3.40;;;;;;;19.49;25.71;100189.23;3484819;80;21445;-81
2022/04/03 10:28:40;;;;;;;3.45;3.17;;;;;;;22.16;24.49;100171.94;3461706;80;21854;-79
2022/04/03 10:33:38;;;;;;;2.83;2.63;;;;;;;21.80;25.18;100173.77;3493278;80;20996;-82
2022/04/03 10:38:45;;;;;;;3.90;3.47;;;;;;;22.04;25.32;100187.39;3465175;80;20990;-79
2022/04/03 10:43:40;;;;;;;3.10;2.80;;;;;;;23.86;23.35;100169.12;3469901;80;20980;-78
2022/04/03 10:48:31;;;;;;;2.50;2.30;;;;;;;24.07;23.12;100167.22;3463753;80;21438;-83
2022/04/03 10:53:26;;;;;;;3.35;3.05;;;;;;;22.55;22.81;100169.95;3455604;80;22586;-83
2022/04/03 10:58:17;;;;;;;3.95;2.70;;;;;;;23.32;22.09;100179.51;3499094;80;21617;-83
2022/04/03 11:03:22;;;;;;;3.22;2.92;;;;;;;22.63;22.90;100173.16;3466621;80;22722;-85
2022/04/03 11:08:18;;;;;;;2.93;2.73;;;;;;;19.94;22.66;100180.48;3519484;80;21228;-84
2022/04/03 11:13:09;;;;;;;2.87;2.67;;;;;;;19.94;22.66;100180.48;3499436;81;21014;-86
2022/04/03 11:18:04;;;;;;;2.52;2.33;;;;;;;21.56;23.02;100167.17;3434812;80;21017;-86
2022/04/03 11:22:57;;;;;;;2.72;2.52;;;;;;;22.69;21.93;100171.56;3496361;80;21452;-86
2022/04/03 11:27:49;;;;;;;3.20;3.00;;;;;;;21.24;21.76;100178.42;3531638;80;20998;-86
2022/04/03 11:32:42;;;;;;;3.08;2.42;;;;;;;22.14;22.02;100171.13;3441997;81;21038;-84
2022/04/03 11:37:33;;;;;;;2.72;2.52;;;;;;;21.38;21.78;100174.44;3472738;80;20941;-85
2022/04/03 11:42:25;;;;;;;3.10;2.90;;;;;;;20.04;22.11;100171.81;3473136;80;21010;-85
2022/04/03 11:47:24;;;;;;;2.87;2.50;;;;;;;16.92;23.22;100183.62;3498414;80;20978;-82
2022/04/03 11:52:15;;;;;;;4.50;3.20;;;;;;;17.95;23.20;100178.11;3481328;80;21006;-82
2022/04/03 11:57:08;;;;;;;4.53;4.12;;;;;;;17.67;23.54;100171.22;3470702;80;20883;-84
2022/04/03 12:02:16;;;;;;;3.30;3.00;;;;;;;16.81;24.08;100161.02;3490524;80;20934;-84
2022/04/03 12:07:13;;;;;;;2.72;2.52;;;;;;;16.13;24.50;100172.59;3476397;80;22203;-83
2022/04/03 12:12:04;;;;;;;3.00;2.70;;;;;;;15.05;24.93;100166.03;3471177;80;20974;-85
2022/04/03 12:17:06;;;;;;;3.70;3.35;;;;;;;13.42;25.18;100175.81;3424350;80;20908;-84
2022/04/03 12:22:00;;;;;;;3.02;2.83;;;;;;;12.99;26.56;100169.81;3492064;80;21524;-84
2022/04/03 12:26:57;;;;;;;3.00;2.70;;;;;;;13.61;26.45;100158.34;3483815;80;21026;-84
2022/04/03 12:32:03;;;;;;;2.95;2.75;;;;;;;13.46;25.81;100154.47;3483210;81;21503;-83
2022/04/03 12:36:57;;;;;;;3.40;3.12;;;;;;;13.05;25.92;100140.63;3486324;81;21010;-83
2022/04/03 12:41:49;;;;;;;3.02;2.72;;;;;;;12.62;27.18;100160.70;3474141;80;21469;-85
2022/04/03 12:46:41;;;;;;;6.17;3.92;;;;;;;11.40;27.08;100162.56;3472953;80;21050;-87
2022/04/03 12:51:38;;;;;;;3.55;3.25;;;;;;;10.83;27.89;100150.96;3476020;80;20958;-87
2022/04/03 12:58:24;;;;;;;4.30;3.77;;;;;;;11.71;28.17;100145.75;3501377;80;28761;-86
2022/04/03 13:01:27;;;;;;;4.30;3.60;;;;;;;11.87;28.11;100141.91;3441219;80;21041;-86
2022/04/03 13:06:33;;;;;;;4.65;3.75;;;;;;;12.29;27.61;100137.67;3521154;80;21034;-85
2022/04/03 13:11:45;;;;;;;3.92;3.37;;;;;;;12.83;27.53;100143.73;3451392;80;40146;-85
2022/04/03 13:16:36;;;;;;;6.92;3.83;;;;;;;12.11;27.91;100138.08;3513419;80;20908;-85
2022/04/03 13:21:27;;;;;;;3.55;3.25;;;;;;;11.23;28.53;100144.69;3466344;80;21065;-84
2022/04/03 13:26:21;;;;;;;5.53;3.08;;;;;;;10.68;29.31;100140.89;3432386;81;20974;-84
2022/04/03 13:31:10;;;;;;;3.33;3.12;;;;;;;10.79;29.86;100153.97;3477126;80;21050;-83
2022/04/03 13:36:02;;;;;;;3.20;2.90;;;;;;;11.45;29.80;100132.66;3451649;80;20898;-83
2022/04/03 13:40:53;;;;;;;3.05;2.47;;;;;;;11.72;29.98;100137.09;3509399;80;20974;-85
2022/04/03 13:46:02;;;;;;;3.58;2.80;;;;;;;11.50;29.05;100133.97;3441459;80;22820;-83
2022/04/03 13:50:54;;;;;;;2.83;2.60;;;;;;;10.38;29.98;100149.75;3458087;80;20955;-85
2022/04/03 13:55:47;;;;;;;2.85;2.55;;;;;;;9.80;30.42;100152.19;3517198;80;20962;-85
2022/04/03 14:00:38;;;;;;;3.05;2.75;;;;;;;9.48;31.35;100153.98;3483271;80;20982;-84
2022/04/03 14:05:29;;;;;;;2.60;2.23;;;;;;;9.72;31.17;100149.48;3484527;81;20945;-85
2022/04/03 14:10:20;;;;;;;2.90;2.58;;;;;;;10.06;31.16;100145.09;3449939;80;22187;-83
2022/04/03 14:15:12;;;;;;;3.77;2.55;;;;;;;10.30;30.63;100155.72;3485200;81;21541;-84
2022/04/03 14:20:04;;;;;;;4.30;3.17;;;;;;;10.45;30.73;100148.95;3435338;81;20970;-83
2022/04/03 14:24:56;;;;;;;3.12;2.83;;;;;;;10.78;30.63;100154.81;3467288;80;20916;-84
2022/04/03 14:29:48;;;;;;;4.03;2.75;;;;;;;10.13;30.64;100149.48;3475387;80;20922;-83
2022/04/03 14:34:39;;;;;;;3.83;2.77;;;;;;;9.42;31.53;100153.88;3489191;80;22470;-83
2022/04/03 14:39:30;;;;;;;3.02;2.72;;;;;;;8.84;32.52;100155.70;3505743;80;21081;-84
2022/04/03 14:44:21;;;;;;;2.92;2.27;;;;;;;8.71;32.33;100152.91;3507552;80;21492;-84
2022/04/03 14:49:13;;;;;;;3.67;2.40;;;;;;;8.53;33.16;100151.30;3477346;80;20955;-83
2022/04/03 14:54:04;;;;;;;3.47;2.50;;;;;;;8.33;33.31;100152.23;3501084;80;20959;-84
2022/04/03 14:58:57;;;;;;;3.10;2.25;;;;;;;8.11;33.17;100153.59;3447954;80;21234;-84
2022/04/03 15:03:48;;;;;;;3.47;2.85;;;;;;;7.69;33.06;100147.65;3442356;81;21009;-81
2022/04/03 15:08:40;;;;;;;2.98;2.17;;;;;;;7.69;33.06;100147.65;3406229;80;21519;-81
2022/04/03 15:13:33;;;;;;;4.12;3.08;;;;;;;7.39;33.95;100154.37;3460397;80;20959;-80
2022/04/03 15:18:24;;;;;;;2.67;2.10;;;;;;;7.39;33.95;100154.37;3453877;80;21418;-81
2022/04/03 15:23:16;;;;;;;3.02;2.70;;;;;;;7.24;33.95;100145.84;3477761;80;22544;-81
2022/04/03 15:28:07;;;;;;;3.27;2.55;;;;;;;7.01;34.57;100156.58;3471906;80;20978;-81
2022/04/03 15:32:59;;;;;;;2.77;2.17;;;;;;;7.08;34.00;100149.81;3437528;80;21404;-81
2022/04/03 15:37:52;;;;;;;3.22;2.47;;;;;;;6.92;34.69;100158.06;3502465;80;21437;-82
2022/04/03 15:42:44;;;;;;;3.67;2.65;;;;;;;6.67;34.75;100161.36;3506358;80;21002;-82
2022/04/03 15:47:35;;;;;;;3.20;2.87;;;;;;;6.49;35.06;100161.79;3500364;80;21074;-82
2022/04/03 15:52:29;;;;;;;4.85;3.02;;;;;;;6.30;35.35;100169.52;3466625;80;20912;-82
2022/04/03 15:57:20;;;;;;;5.70;3.83;;;;;;;6.15;35.97;100175.56;3473533;80;21002;-82
2022/04/03 16:02:11;;;;;;;4.35;2.98;;;;;;;6.09;36.22;100178.86;3453284;80;21524;-82
2022/04/03 16:07:03;;;;;;;4.22;2.72;;;;;;;6.00;36.68;100178.19;3469380;80;21117;-82
2022/04/03 16:11:54;;;;;;;3.33;2.58;;;;;;;5.91;37.37;100185.66;3474364;80;20947;-82
2022/04/03 16:16:46;;;;;;;4.42;2.70;;;;;;;5.69;37.19;100180.33;3484999;80;21002;-82
2022/04/03 16:21:38;;;;;;;2.92;2.02;;;;;;;5.46;37.40;100180.96;3511102;80;20954;-82
2022/04/03 16:26:31;;;;;;;7.08;3.08;;;;;;;5.29;37.83;100191.66;3484076;80;20953;-82
2022/04/03 16:31:22;;;;;;;4.75;2.45;;;;;;;5.20;37.63;100193.06;3471646;80;21054;-83
2022/04/03 16:36:13;;;;;;;5.50;2.80;;;;;;;5.12;38.30;100196.70;3482912;80;21857;-82
2022/04/03 16:41:05;;;;;;;3.85;3.33;;;;;;;5.03;39.13;100200.30;3426294;80;20970;-82
2022/04/03 16:45:56;;;;;;;8.00;3.25;;;;;;;4.94;39.26;100199.17;3446252;80;20991;-81
2022/04/03 16:50:48;;;;;;;4.03;2.60;;;;;;;4.88;39.27;100196.41;3462530;80;21488;-82
2022/04/03 16:55:40;;;;;;;5.55;2.98;;;;;;;4.76;39.11;100196.88;3439751;80;22184;-82
2022/04/03 17:00:32;;;;;;;3.17;2.37;;;;;;;4.60;39.43;100199.80;3475011;80;21599;-82
2022/04/03 17:05:23;;;;;;;4.55;2.45;;;;;;;4.47;39.22;100206.25;3350226;82;522220;-82
2022/04/03 17:10:14;;;;;;;3.27;2.15;;;;;;;4.31;39.76;100216.82;3316883;83;21048;-81
2022/04/03 17:15:07;;;;;;;2.45;1.80;;;;;;;4.20;39.95;100219.92;3311234;84;21704;-82
2022/04/03 17:19:58;;;;;;;2.70;2.08;;;;;;;4.12;39.59;100231.63;3332936;84;20993;-82
2022/04/03 17:24:49;;;;;;;9.50;3.15;;;;;;;3.99;39.77;100233.32;3299411;83;21002;-82
2022/04/03 17:29:42;;;;;;;5.03;2.55;;;;;;;3.90;40.07;100244.15;3303433;84;21578;-83
2022/04/03 17:34:33;;;;;;;3.30;2.33;;;;;;;3.82;40.26;100248.99;3322883;83;21368;-82
2022/04/03 17:39:25;;;;;;;4.17;2.85;;;;;;;3.70;40.66;100248.57;3351294;84;21032;-81
2022/04/03 17:44:18;;;;;;;3.60;2.52;;;;;;;3.57;40.56;100251.06;3330708;84;21619;-82
2022/04/03 17:49:13;;;;;;;3.33;2.70;;;;;;;3.48;40.87;100257.56;3348530;84;21662;-81
2022/04/03 17:54:04;;;;;;;5.65;3.58;;;;;;;3.36;40.92;100265.67;3307743;83;21476;-82
2022/04/03 17:58:55;;;;;;;8.98;4.40;;;;;;;3.25;41.53;100269.11;3333575;83;22504;-77
2022/04/03 18:03:47;;;;;;;8.00;4.25;;;;;;;3.13;42.26;100267.33;3339061;84;22010;-82
2022/04/03 18:08:38;;;;;;;7.70;4.08;;;;;;;2.95;43.09;100270.95;3300591;84;21136;-82
2022/04/03 18:13:29;;;;;;;6.20;4.15;;;;;;;2.76;42.75;100283.84;3369971;83;21353;-82
2022/04/03 18:18:20;;;;;;;10.18;5.58;;;;;;;2.56;43.52;100282.59;3353534;84;21477;-83
2022/04/03 18:23:13;;;;;;;9.45;4.30;;;;;;;2.47;43.78;100291.20;3301921;84;21006;-83
2022/04/03 18:28:04;;;;;;;9.83;4.25;;;;;;;2.42;44.76;100299.09;3317728;84;21538;-83
2022/04/03 18:32:56;;;;;;;7.55;4.30;;;;;;;2.28;44.93;100298.08;3311463;84;20993;-83
2022/04/03 18:37:47;;;;;;;9.85;5.37;;;;;;;2.17;45.36;100299.30;3280961;84;21757;-83
2022/04/03 18:42:40;;;;;;;11.78;5.78;;;;;;;2.02;46.00;100298.62;3326548;83;20956;-83
2022/04/03 18:47:32;;;;;;;9.55;6.80;;;;;;;1.95;46.55;100304.28;3313528;83;20909;-83
2022/04/03 18:52:23;;;;;;;11.70;7.12;;;;;;;1.85;46.61;100306.44;3328622;84;21035;-83
2022/04/03 18:57:14;;;;;;;14.20;7.70;;;;;;;1.74;47.50;100305.08;3328610;83;21006;-83
2022/04/03 19:02:05;;;;;;;20.77;10.13;;;;;;;1.62;48.12;100313.06;3295484;84;21788;-83
2022/04/03 19:06:56;;;;;;;14.33;8.10;;;;;;;1.56;48.29;100319.58;3286955;84;22394;-83
2022/04/03 19:11:49;;;;;;;11.88;7.53;;;;;;;1.49;48.19;100316.74;3284665;84;20957;-83
2022/04/03 19:16:41;;;;;;;13.32;8.23;;;;;;;1.48;49.00;100321.38;3263951;85;21059;-83
2022/04/03 19:21:32;;;;;;;12.95;8.63;;;;;;;1.38;49.16;100317.93;3264065;85;21076;-83
2022/04/03 19:26:23;;;;;;;15.05;7.95;;;;;;;1.27;49.74;100312.68;3265063;86;22365;-83
2022/04/03 19:31:17;;;;;;;14.15;7.80;;;;;;;1.16;49.96;100317.70;3259450;85;21038;-83
2022/04/03 19:36:09;;;;;;;12.65;8.48;;;;;;;1.12;51.19;100325.22;3312571;84;20950;-82
2022/04/03 19:41:00;;;;;;;16.65;10.15;;;;;;;1.09;51.19;100319.98;3225136;86;20998;-82
2022/04/03 19:45:51;;;;;;;19.67;10.65;;;;;;;1.04;50.55;100323.99;3286220;84;20954;-82
2022/04/03 19:50:43;;;;;;;18.42;9.38;;;;;;;0.99;50.45;100317.77;3205438;85;21971;-82
2022/04/03 19:55:35;;;;;;;12.98;8.85;;;;;;;0.99;50.80;100319.05;3302398;85;21172;-85
2022/04/03 20:00:27;;;;;;;15.13;8.90;;;;;;;1.05;51.44;100318.05;3215832;85;20986;-85
2022/04/03 20:05:19;;;;;;;17.40;9.40;;;;;;;1.11;51.86;100320.92;3278897;84;21264;-85
2022/04/03 20:10:10;;;;;;;14.55;8.73;;;;;;;1.12;52.34;100318.82;3236849;86;20989;-85
2022/04/03 20:15:02;;;;;;;11.05;8.63;;;;;;;1.12;52.53;100323.07;3308774;83;21056;-85
2022/04/03 20:19:54;;;;;;;14.58;7.97;;;;;;;1.12;52.63;100326.91;3338866;83;21705;-85
2022/04/03 20:24:45;;;;;;;11.18;8.18;;;;;;;1.13;53.23;100326.13;3344307;84;20969;-85
2022/04/03 20:29:36;;;;;;;14.73;9.03;;;;;;;1.13;53.69;100331.25;3273039;86;21007;-84
2022/04/03 20:34:28;;;;;;;15.00;8.90;;;;;;;1.13;53.39;100328.27;3219454;86;20990;-85
2022/04/03 20:39:19;;;;;;;19.37;10.05;;;;;;;1.18;52.94;100335.29;3309300;85;21049;-84
2022/04/03 20:44:15;;;;;;;18.50;10.10;;;;;;;1.17;53.19;100333.55;3265558;86;21807;-84
